Time;durP1;ratioP1;P1;durP2;ratioP2;P2;SDS_P1;SDS_P2;PMS_P1;PMS_P2;Temp;Humidity;BMP_temperature;BMP_pressure;BME280_temperature;BME280_humidity;BME280_pressure;Samples;Min_cycle;Max_cycle;Signal;HPM_P1;HPM_P2
2021/01/15 00:00:27;;;;;;;;;;;;;;;-0.68;79.11;98017.94;1687058;84;20541;-92
2021/01/15 00:03:15;;;;;;;;;;;;;;;-0.65;79.08;98024.25;1699058;84;20222;-92
2021/01/15 00:06:05;;;;;;;;;;;;;;;-0.69;79.05;98024.40;1721556;83;22118;-91
2021/01/15 00:08:50;;;;;;;;;;;;;;;-0.69;79.00;98026.97;1723711;83;26128;-93
2021/01/15 00:11:36;;;;;;;;;;;;;;;-0.72;78.96;98021.50;1687150;85;24620;-92
2021/01/15 00:14:22;;;;;;;;;;;;;;;-0.69;78.91;98026.97;1699265;82;20335;-92
2021/01/15 00:17:08;;;;;;;;;;;;;;;-0.71;78.88;98027.48;1712533;83;24930;-94
2021/01/15 00:19:55;;;;;;;;;;;;;;;-0.71;78.84;98033.44;1700787;84;22158;-91
2021/01/15 00:22:41;;;;;;;;;;;;;;;-0.74;78.80;98034.83;1695627;84;26176;-92
2021/01/15 00:25:27;;;;;;;;;;;;;;;-0.81;78.75;98035.89;1701941;84;25458;-93
2021/01/15 00:28:13;;;;;;;;;;;;;;;-0.92;78.71;98029.80;1701238;84;20454;-92
2021/01/15 00:30:59;;;;;;;;;;;;;;;-0.94;78.65;98026.91;1697485;84;24913;-93
2021/01/15 00:33:46;;;;;;;;;;;;;;;-0.95;78.61;98031.64;1700688;84;22155;-93
2021/01/15 00:36:32;;;;;;;;;;;;;;;-0.97;78.57;98029.55;1702855;84;26135;-93
2021/01/15 00:39:18;;;;;;;;;;;;;;;-0.97;78.53;98033.40;1687858;85;24619;-92
2021/01/15 00:42:04;;;;;;;;;;;;;;;-0.95;78.51;98038.06;1711490;83;20270;-92
2021/01/15 00:44:50;;;;;;;;;;;;;;;-0.99;78.48;98039.89;1696872;83;25126;-93
2021/01/15 00:47:36;;;;;;;;;;;;;;;-1.02;78.43;98045.54;1699132;84;22405;-93
2021/01/15 00:50:22;;;;;;;;;;;;;;;-1.09;78.41;98050.48;1702019;83;26373;-93
2021/01/15 00:53:08;;;;;;;;;;;;;;;-1.07;78.37;98054.67;1701305;83;24560;-92
2021/01/15 00:55:54;;;;;;;;;;;;;;;-1.07;78.33;98059.80;1703038;84;20405;-92
2021/01/15 00:58:40;;;;;;;;;;;;;;;-1.07;78.32;98071.36;1697029;84;24913;-93
2021/01/15 01:01:26;;;;;;;;;;;;;;;-1.09;78.28;98074.88;1702324;84;22121;-91
2021/01/15 01:04:13;;;;;;;;;;;;;;;-1.06;78.25;98077.34;1702320;83;26362;-92
2021/01/15 01:06:59;;;;;;;;;;;;;;;-1.01;78.24;98078.05;1685770;85;25023;-93
2021/01/15 01:09:46;;;;;;;;;;;;;;;-1.02;78.21;98085.34;1702928;84;20314;-91
2021/01/15 01:12:32;;;;;;;;;;;;;;;-1.01;78.19;98079.33;1703542;84;24896;-92
2021/01/15 01:15:18;;;;;;;;;;;;;;;-1.02;78.16;98085.34;1703340;84;22382;-93
2021/01/15 01:18:04;;;;;;;;;;;;;;;-1.01;78.15;98081.89;1702823;83;26372;-93
2021/01/15 01:20:52;;;;;;;;;;;;;;;-1.01;78.14;98085.30;1717321;83;25770;-93
2021/01/15 01:23:38;;;;;;;;;;;;;;;-1.05;78.11;98093.15;1698070;84;20290;-92
2021/01/15 01:26:24;;;;;;;;;;;;;;;-1.07;78.07;98100.05;1696367;84;24895;-93
2021/01/15 01:29:10;;;;;;;;;;;;;;;-1.06;78.06;98097.44;1700607;84;22436;-92
2021/01/15 01:31:55;;;;;;;;;;;;;;;-1.09;78.03;98091.56;1697284;84;27091;-92
2021/01/15 01:34:44;;;;;;;;;;;;;;;-1.07;78.02;98096.19;1699314;84;24579;-93
2021/01/15 01:37:30;;;;;;;;;;;;;;;-1.04;78.00;98084.56;1700618;84;20306;-92
2021/01/15 01:40:16;;;;;;;;;;;;;;;-0.95;77.97;98086.41;1695515;84;24957;-94
2021/01/15 01:43:03;;;;;;;;;;;;;;;-0.98;77.96;98091.62;1702195;84;22152;-92
2021/01/15 01:45:49;;;;;;;;;;;;;;;-0.96;77.93;98094.16;1699839;84;25655;-91
2021/01/15 01:48:35;;;;;;;;;;;;;;;-1.03;77.93;98094.77;1699438;84;24776;-93
2021/01/15 01:51:21;;;;;;;;;;;;;;;-1.01;77.90;98097.30;1680532;85;20279;-92
2021/01/15 01:54:08;;;;;;;;;;;;;;;-0.95;77.89;98091.98;1703673;83;25861;-92
2021/01/15 01:56:54;;;;;;;;;;;;;;;-0.88;77.85;98096.91;1712638;83;22313;-91
2021/01/15 01:59:40;;;;;;;;;;;;;;;-0.80;77.83;98096.66;1715714;83;26132;-91
2021/01/15 02:02:26;;;;;;;;;;;;;;;-0.77;77.83;98106.02;1703315;83;24865;-94
2021/01/15 02:05:11;;;;;;;;;;;;;;;-0.79;77.83;98098.80;1703166;84;20277;-92
2021/01/15 02:07:59;;;;;;;;;;;;;;;-0.79;77.79;98099.64;1696015;84;24882;-92
2021/01/15 02:10:45;;;;;;;;;;;;;;;-0.79;77.78;98099.64;1703849;83;22304;-92
2021/01/15 02:13:32;;;;;;;;;;;;;;;-0.85;77.75;98099.81;1701954;84;27088;-90
2021/01/15 02:16:18;;;;;;;;;;;;;;;-0.91;77.72;98096.98;1678803;84;24594;-91
2021/01/15 02:19:04;;;;;;;;;;;;;;;-0.96;77.68;98098.00;1663158;86;20340;-91
2021/01/15 02:21:50;;;;;;;;;;;;;;;-0.98;77.66;98101.05;1676760;84;25132;-91
2021/01/15 02:24:36;;;;;;;;;;;;;;;-0.98;77.63;98108.75;1652400;84;22183;-91
2021/01/15 02:27:22;;;;;;;;;;;;;;;-1.04;77.60;98103.83;1666097;84;26215;-91
2021/01/15 02:30:08;;;;;;;;;;;;;;;-1.06;77.56;98100.45;1687296;84;24582;-92
2021/01/15 02:32:55;;;;;;;;;;;;;;;-1.05;77.52;98108.11;1665210;84;20452;-93
2021/01/15 02:35:41;;;;;;;;;;;;;;;-1.07;77.52;98106.02;1635571;87;24868;-92
2021/01/15 02:38:27;;;;;;;;;;;;;;;-1.12;77.49;98110.45;1652689;86;22359;-91
2021/01/15 02:41:13;;;;;;;;;;;;;;;-1.16;77.47;98111.43;1652853;86;27166;-92
2021/01/15 02:43:59;;;;;;;;;;;;;;;-1.22;77.42;98109.47;1637574;87;24534;-92
2021/01/15 02:46:45;;;;;;;;;;;;;;;-1.30;77.40;98110.95;1691978;84;20615;-93
2021/01/15 02:49:32;;;;;;;;;;;;;;;-1.30;77.37;98111.80;1685569;84;24956;-92
2021/01/15 02:52:18;;;;;;;;;;;;;;;-1.25;77.33;98109.09;1687484;84;22276;-92
2021/01/15 02:55:04;;;;;;;;;;;;;;;-1.24;77.33;98108.66;1689828;84;26129;-92
2021/01/15 02:57:51;;;;;;;;;;;;;;;-1.28;77.34;98115.17;1688318;84;24818;-91
2021/01/15 03:00:37;;;;;;;;;;;;;;;-1.32;77.33;98107.61;1688989;84;20286;-92
2021/01/15 03:03:23;;;;;;;;;;;;;;;-1.30;77.31;98106.67;1700471;84;24935;-91
2021/01/15 03:06:09;;;;;;;;;;;;;;;-1.36;77.29;98099.13;1684793;84;22157;-92
2021/01/15 03:08:55;;;;;;;;;;;;;;;-1.35;77.29;98108.96;1697017;84;26223;-92
2021/01/15 03:11:41;;;;;;;;;;;;;;;-1.34;77.26;98106.80;1695739;84;24611;-92
2021/01/15 03:14:27;;;;;;;;;;;;;;;-1.35;77.27;98102.11;1686756;84;20317;-93
2021/01/15 03:17:13;;;;;;;;;;;;;;;-1.35;77.25;98107.23;1651550;85;24971;-91
2021/01/15 03:19:59;;;;;;;;;;;;;;;-1.35;77.26;98104.67;1647865;86;23282;-93
2021/01/15 03:22:47;;;;;;;;;;;;;;;-1.33;77.26;98108.05;1644538;86;26136;-92
2021/01/15 03:25:33;;;;;;;;;;;;;;;-1.29;77.26;98108.36;1637867;87;24797;-92
2021/01/15 03:28:19;;;;;;;;;;;;;;;-1.24;77.25;98100.95;1644340;87;20711;-91
2021/01/15 03:31:05;;;;;;;;;;;;;;;-1.24;77.24;98097.11;1644215;87;24871;-91
2021/01/15 03:33:51;;;;;;;;;;;;;;;-1.27;77.25;98104.03;1642281;87;22136;-92
2021/01/15 03:36:37;;;;;;;;;;;;;;;-1.30;77.25;98109.67;1637517;87;26150;-92
2021/01/15 03:39:23;;;;;;;;;;;;;;;-1.36;77.23;98103.42;1644257;86;24397;-91
2021/01/15 03:42:09;;;;;;;;;;;;;;;-1.38;77.21;98107.34;1644370;87;20477;-92
2021/01/15 03:44:55;;;;;;;;;;;;;;;-1.39;77.20;98099.23;1644452;86;24969;-91
2021/01/15 03:47:41;;;;;;;;;;;;;;;-1.38;77.19;98103.48;1644474;86;22348;-92
2021/01/15 03:50:27;;;;;;;;;;;;;;;-1.43;77.20;98106.62;1634186;87;26297;-92
2021/01/15 03:53:14;;;;;;;;;;;;;;;-1.47;77.18;98113.98;1618466;87;25542;-93
2021/01/15 03:56:00;;;;;;;;;;;;;;;-1.48;77.18;98111.05;1634182;87;20501;-92
2021/01/15 03:58:46;;;;;;;;;;;;;;;-1.51;77.15;98111.11;1642240;87;24972;-92
2021/01/15 04:01:33;;;;;;;;;;;;;;;-1.53;77.15;98106.48;1625710;87;22456;-94
2021/01/15 04:04:19;;;;;;;;;;;;;;;-1.56;77.14;98106.55;1642331;87;26209;-92
2021/01/15 04:07:05;;;;;;;;;;;;;;;-1.58;77.14;98105.73;1644442;86;25555;-91
2021/01/15 04:09:51;;;;;;;;;;;;;;;-1.55;77.12;98108.67;1636534;87;20224;-92
2021/01/15 04:12:37;;;;;;;;;;;;;;;-1.55;77.12;98104.39;1628282;87;25063;-92
2021/01/15 04:15:23;;;;;;;;;;;;;;;-1.52;77.13;98105.57;1643904;85;22149;-93
2021/01/15 04:18:09;;;;;;;;;;;;;;;-1.51;77.13;98100.84;1633654;87;26372;-92
2021/01/15 04:20:55;;;;;;;;;;;;;;;-1.51;77.12;98100.00;1647815;86;24706;-91
2021/01/15 04:23:42;;;;;;;;;;;;;;;-1.51;77.15;98103.84;1644393;86;20308;-92
2021/01/15 04:26:28;;;;;;;;;;;;;;;-1.53;77.16;98098.78;1644352;87;24880;-91
2021/01/15 04:29:14;;;;;;;;;;;;;;;-1.56;77.14;98104.42;1644509;87;22233;-91
2021/01/15 04:32:00;;;;;;;;;;;;;;;-1.55;77.14;98094.56;1644424;87;26269;-92
2021/01/15 04:34:47;;;;;;;;;;;;;;;-1.56;77.16;98102.70;1644389;87;25569;-92
2021/01/15 04:37:33;;;;;;;;;;;;;;;-1.51;77.17;98097.44;1638318;87;20319;-91
2021/01/15 04:40:19;;;;;;;;;;;;;;;-1.53;77.17;98093.65;1645939;87;25074;-92
2021/01/15 04:43:05;;;;;;;;;;;;;;;-1.57;77.18;98095.03;1636044;87;22185;-92
2021/01/15 04:45:51;;;;;;;;;;;;;;;-1.61;77.18;98102.42;1644545;87;26200;-92
2021/01/15 04:48:37;;;;;;;;;;;;;;;-1.59;77.17;98096.37;1644653;87;24623;-92
2021/01/15 04:51:24;;;;;;;;;;;;;;;-1.60;77.15;98099.82;1644610;87;20349;-92
2021/01/15 04:54:11;;;;;;;;;;;;;;;-1.60;77.18;98106.23;1633968;87;25124;-92
2021/01/15 04:56:57;;;;;;;;;;;;;;;-1.63;77.16;98108.86;1644600;86;21903;-92
2021/01/15 04:59:43;;;;;;;;;;;;;;;-1.67;77.18;98116.69;1644734;86;26221;-93
2021/01/15 05:02:29;;;;;;;;;;;;;;;-1.74;77.15;98119.41;1644626;87;24567;-93
2021/01/15 05:05:16;;;;;;;;;;;;;;;-1.80;77.15;98117.00;1644621;87;20283;-91
2021/01/15 05:08:02;;;;;;;;;;;;;;;-1.84;77.13;98131.22;1644513;87;24957;-93
2021/01/15 05:10:48;;;;;;;;;;;;;;;-1.88;77.11;98124.06;1644630;87;22359;-92
2021/01/15 05:13:36;;;;;;;;;;;;;;;-1.85;77.10;98117.99;1638504;87;20268;-92
2021/01/15 05:16:22;;;;;;;;;;;;;;;-1.84;77.11;98118.41;1644613;85;25535;-92
2021/01/15 05:19:09;;;;;;;;;;;;;;;-1.87;77.10;98119.34;1644538;87;20333;-93
2021/01/15 05:21:55;;;;;;;;;;;;;;;-1.87;77.12;98113.36;1645482;86;25150;-90
2021/01/15 05:24:41;;;;;;;;;;;;;;;-1.88;77.10;98114.23;1644619;87;22241;-91
2021/01/15 05:27:39;;;;;;;;;;;;;;;-1.86;77.11;98118.91;1644381;87;26316;-91
2021/01/15 05:30:25;;;;;;;;;;;;;;;-1.87;77.13;98116.77;1642139;87;24686;-91
2021/01/15 05:33:12;;;;;;;;;;;;;;;-1.85;77.12;98125.69;1643396;87;20272;-90
2021/01/15 05:35:58;;;;;;;;;;;;;;;-1.81;77.13;98120.47;1640364;87;25027;-91
2021/01/15 05:38:44;;;;;;;;;;;;;;;-1.78;77.14;98130.63;1642631;87;22352;-90
2021/01/15 05:41:30;;;;;;;;;;;;;;;-1.74;77.14;98130.10;1643344;87;26247;-92
2021/01/15 05:44:16;;;;;;;;;;;;;;;-1.71;77.19;98133.89;1644102;87;25628;-92
2021/01/15 05:47:03;;;;;;;;;;;;;;;-1.75;77.20;98133.14;1641281;87;20471;-92
2021/01/15 05:49:49;;;;;;;;;;;;;;;-1.72;77.20;98140.73;1638713;86;24922;-91
2021/01/15 05:52:35;;;;;;;;;;;;;;;-1.71;77.22;98142.87;1643575;87;22394;-92
2021/01/15 05:55:21;;;;;;;;;;;;;;;-1.66;77.23;98150.44;1644273;87;26137;-92
2021/01/15 05:58:07;;;;;;;;;;;;;;;-1.67;77.24;98149.59;1639124;87;23975;-91
2021/01/15 06:00:54;;;;;;;;;;;;;;;-1.66;77.24;98154.28;1644506;86;20264;-90
2021/01/15 06:03:40;;;;;;;;;;;;;;;-1.71;77.24;98149.28;1644251;87;24912;-91
2021/01/15 06:06:26;;;;;;;;;;;;;;;-1.65;77.24;98147.84;1644414;87;22964;-93
2021/01/15 06:09:12;;;;;;;;;;;;;;;-1.67;77.24;98147.03;1638915;87;26457;-92
2021/01/15 06:11:58;;;;;;;;;;;;;;;-1.65;77.24;98145.72;1642046;87;25456;-90
2021/01/15 06:14:56;;;;;;;;;;;;;;;-1.67;77.24;98145.75;1644302;87;20308;-90
2021/01/15 06:17:40;;;;;;;;;;;;;;;-1.66;77.23;98146.59;1640581;85;25101;-91
2021/01/15 06:20:26;;;;;;;;;;;;;;;-1.67;77.21;98159.01;1647411;86;21825;-91
2021/01/15 06:23:14;;;;;;;;;;;;;;;-1.68;77.21;98159.45;1653279;85;20198;-92
2021/01/15 06:26:00;;;;;;;;;;;;;;;-1.71;77.21;98168.08;1657142;86;24617;-92
2021/01/15 06:28:46;;;;;;;;;;;;;;;-1.75;77.20;98172.05;1658784;86;20649;-92
2021/01/15 06:31:32;;;;;;;;;;;;;;;-1.79;77.19;98174.27;1658586;86;24953;-93
2021/01/15 06:34:19;;;;;;;;;;;;;;;-1.76;77.20;98180.62;1650832;86;22391;-93
2021/01/15 06:37:05;;;;;;;;;;;;;;;-1.76;77.18;98183.19;1652511;86;26953;-92
2021/01/15 06:39:51;;;;;;;;;;;;;;;-1.73;77.17;98184.38;1659418;85;24637;-91
2021/01/15 06:42:37;;;;;;;;;;;;;;;-1.73;77.16;98193.35;1652234;85;20298;-90
2021/01/15 06:45:23;;;;;;;;;;;;;;;-1.72;77.17;98197.61;1654686;86;24922;-90
2021/01/15 06:48:09;;;;;;;;;;;;;;;-1.73;77.17;98200.61;1636023;86;22176;-92
2021/01/15 06:50:55;;;;;;;;;;;;;;;-1.72;77.16;98206.58;1659539;86;26155;-92
2021/01/15 06:53:43;;;;;;;;;;;;;;;-1.71;77.18;98209.13;1637433;86;24421;-91
2021/01/15 06:56:29;;;;;;;;;;;;;;;-1.72;77.19;98211.28;1649995;85;20626;-92
2021/01/15 06:59:16;;;;;;;;;;;;;;;-1.69;77.18;98206.49;1655852;86;25733;-92
2021/01/15 07:02:02;;;;;;;;;;;;;;;-1.73;77.17;98210.02;1647941;86;22265;-92
2021/01/15 07:04:48;;;;;;;;;;;;;;;-1.75;77.16;98206.67;1661522;86;26232;-92
2021/01/15 07:07:34;;;;;;;;;;;;;;;-1.72;77.14;98212.56;1654508;86;24765;-91
2021/01/15 07:10:20;;;;;;;;;;;;;;;-1.72;77.15;98216.41;1653351;86;20547;-92
2021/01/15 07:13:06;;;;;;;;;;;;;;;-1.72;77.15;98220.25;1657177;86;24930;-93
2021/01/15 07:15:52;;;;;;;;;;;;;;;-1.68;77.12;98224.86;1651438;86;22126;-91
2021/01/15 07:18:38;;;;;;;;;;;;;;;-1.68;77.14;98226.14;1642664;86;26228;-92
2021/01/15 07:21:25;;;;;;;;;;;;;;;-1.66;77.14;98217.98;1645221;86;24680;-91
2021/01/15 07:24:11;;;;;;;;;;;;;;;-1.66;77.12;98223.55;1644602;87;20589;-91
2021/01/15 07:26:57;;;;;;;;;;;;;;;-1.68;77.11;98232.55;1644603;87;25019;-91
2021/01/15 07:29:43;;;;;;;;;;;;;;;-1.71;77.11;98230.92;1644367;87;22165;-91
2021/01/15 07:32:30;;;;;;;;;;;;;;;-1.74;77.08;98232.70;1648520;85;26433;-91
2021/01/15 07:35:16;;;;;;;;;;;;;;;-1.74;77.08;98236.55;1642461;85;24601;-91
2021/01/15 07:38:02;;;;;;;;;;;;;;;-1.74;77.06;98235.27;1642181;87;20329;-92
2021/01/15 07:40:49;;;;;;;;;;;;;;;-1.75;77.05;98239.58;1645739;86;24884;-91
2021/01/15 07:43:35;;;;;;;;;;;;;;;-1.75;77.04;98252.84;1639127;87;22231;-91
2021/01/15 07:46:22;;;;;;;;;;;;;;;-1.75;77.02;98254.97;1643846;87;26155;-92
2021/01/15 07:49:11;;;;;;;;;;;;;;;-1.78;77.01;98254.18;1648318;87;24636;-91
2021/01/15 07:51:56;;;;;;;;;;;;;;;-1.74;77.02;98263.48;1648202;87;20437;-92
2021/01/15 07:54:42;;;;;;;;;;;;;;;-1.80;77.00;98258.52;1626090;87;24925;-91
2021/01/15 07:57:29;;;;;;;;;;;;;;;-1.77;76.96;98266.98;1642972;87;22133;-91
2021/01/15 08:00:15;;;;;;;;;;;;;;;-1.77;76.96;98272.55;1641692;87;26351;-92
2021/01/15 08:03:02;;;;;;;;;;;;;;;-1.87;76.93;98273.64;1649286;87;24688;-93
2021/01/15 08:05:51;;;;;;;;;;;;;;;-2.08;76.89;98276.25;1644159;87;20319;-93
2021/01/15 08:08:41;;;;;;;;;;;;;;;-2.23;76.83;98276.13;1672497;85;25102;-92
2021/01/15 08:11:25;;;;;;;;;;;;;;;-2.33;76.73;98286.17;1651055;86;22192;-91
2021/01/15 08:14:13;;;;;;;;;;;;;;;-2.37;76.66;98291.39;1635737;87;26117;-93
2021/01/15 08:16:59;;;;;;;;;;;;;;;-2.43;76.57;98294.92;1639065;85;24629;-92
2021/01/15 08:19:46;;;;;;;;;;;;;;;-2.56;76.50;98306.28;1700693;83;20312;-92
2021/01/15 08:22:32;;;;;;;;;;;;;;;-2.56;76.40;98307.13;1687353;83;25037;-93
2021/01/15 08:25:18;;;;;;;;;;;;;;;-2.63;76.31;98305.58;1703067;84;22134;-93
2021/01/15 08:28:04;;;;;;;;;;;;;;;-2.54;76.21;98313.52;1692445;85;26087;-91
2021/01/15 08:30:50;;;;;;;;;;;;;;;-2.55;76.17;98313.95;1711540;83;24576;-92
2021/01/15 08:33:36;;;;;;;;;;;;;;;-2.63;76.11;98304.73;1680874;85;20299;-92
2021/01/15 08:36:23;;;;;;;;;;;;;;;-2.69;76.04;98312.10;1736659;82;25843;-92
2021/01/15 08:39:09;;;;;;;;;;;;;;;-2.73;75.96;98314.75;1679950;85;22884;-93
2021/01/15 08:41:56;;;;;;;;;;;;;;;-2.73;75.86;98311.76;1703125;83;26078;-92
2021/01/15 08:44:43;;;;;;;;;;;;;;;-2.75;75.79;98310.94;1711629;83;24606;-92
2021/01/15 08:47:31;;;;;;;;;;;;;;;-2.74;75.72;98307.94;1712617;83;20454;-91
2021/01/15 08:50:17;;;;;;;;;;;;;;;-2.67;75.66;98312.05;1709714;83;25884;-91
2021/01/15 08:53:03;;;;;;;;;;;;;;;-2.50;75.59;98313.84;1718864;82;22954;-92
2021/01/15 08:55:49;;;;;;;;;;;;;;;-2.49;75.57;98315.54;1715154;83;25898;-92
2021/01/15 08:58:36;;;;;;;;;;;;;;;-2.53;75.51;98317.77;1708409;83;24689;-92
2021/01/15 09:01:22;;;;;;;;;;;;;;;-2.63;75.44;98315.83;1705677;83;20211;-91
2021/01/15 09:04:08;;;;;;;;;;;;;;;-2.57;75.37;98326.39;1711560;83;24923;-91
2021/01/15 09:06:55;;;;;;;;;;;;;;;-2.53;75.30;98319.05;1711432;82;21894;-90
2021/01/15 09:09:41;;;;;;;;;;;;;;;-2.51;75.22;98313.47;1718183;83;26316;-92
2021/01/15 09:12:31;;;;;;;;;;;;;;;-2.45;75.13;98317.59;1702390;83;24822;-93
2021/01/15 09:15:20;;;;;;;;;;;;;;;-2.50;75.06;98320.69;1723955;83;20337;-93
2021/01/15 09:24:43;;;;;;;;;;;;;;;-2.64;74.63;98333.34;1688805;85;22126;-96
2021/01/15 09:27:30;;;;;;;;;;;;;;;-2.62;74.43;98329.48;1714492;83;24630;-95
2021/01/15 09:30:16;;;;;;;;;;;;;;;-2.60;74.30;98328.99;1705427;83;20360;-93
2021/01/15 09:33:03;;;;;;;;;;;;;;;-2.60;74.15;98332.84;1682463;84;27206;-92
2021/01/15 09:35:50;;;;;;;;;;;;;;;-2.58;74.01;98335.80;1697848;84;22347;-93
2021/01/15 09:38:36;;;;;;;;;;;;;;;-2.48;73.86;98340.73;1699331;84;26106;-92
2021/01/15 09:41:23;;;;;;;;;;;;;;;-2.47;73.76;98345.83;1698781;84;24829;-94
2021/01/15 09:44:13;;;;;;;;;;;;;;;-2.50;73.58;98349.71;1705772;83;20262;-94
2021/01/15 09:46:59;;;;;;;;;;;;;;;-2.52;73.39;98348.07;1701570;84;24987;-95
2021/01/15 09:49:45;;;;;;;;;;;;;;;-2.56;73.17;98347.27;1703697;84;23173;-93
2021/01/15 09:52:33;;;;;;;;;;;;;;;-2.57;72.94;98342.61;1701033;84;26094;-94
2021/01/15 09:55:19;;;;;;;;;;;;;;;-2.43;72.75;98334.64;1700741;83;24875;-94
2021/01/15 09:58:05;;;;;;;;;;;;;;;-2.33;72.59;98332.73;1698477;83;20266;-93
2021/01/15 10:00:51;;;;;;;;;;;;;;;-2.26;72.45;98332.59;1698960;83;24931;-91
2021/01/15 10:03:38;;;;;;;;;;;;;;;-2.17;72.33;98338.80;1701714;83;22247;-92
2021/01/15 10:06:27;;;;;;;;;;;;;;;-2.09;72.21;98338.64;1704015;83;26960;-92
2021/01/15 10:09:12;;;;;;;;;;;;;;;-2.03;72.12;98342.80;1703807;83;24785;-93
2021/01/15 10:11:58;;;;;;;;;;;;;;;-1.99;72.00;98346.98;1705503;83;20320;-92
2021/01/15 10:14:44;;;;;;;;;;;;;;;-2.02;71.86;98350.91;1699909;83;25129;-91
2021/01/15 10:17:30;;;;;;;;;;;;;;;-1.95;71.72;98348.59;1686058;84;23241;-92
2021/01/15 10:20:18;;;;;;;;;;;;;;;-1.95;71.59;98355.00;1665828;84;26120;-90
2021/01/15 10:23:05;;;;;;;;;;;;;;;-1.99;71.40;98352.11;1678615;84;24867;-92
2021/01/15 10:25:51;;;;;;;;;;;;;;;-1.95;71.24;98346.03;1714593;83;20308;-93
2021/01/15 10:28:38;;;;;;;;;;;;;;;-1.89;71.09;98348.47;1698559;84;25029;-91
2021/01/15 10:31:24;;;;;;;;;;;;;;;-1.98;70.94;98349.95;1700169;83;22303;-92
2021/01/15 10:34:10;;;;;;;;;;;;;;;-2.00;70.74;98349.98;1680534;83;26971;-93
2021/01/15 10:36:56;;;;;;;;;;;;;;;-2.03;70.58;98344.09;1682942;84;24609;-92
2021/01/15 10:39:42;;;;;;;;;;;;;;;-2.13;70.36;98340.41;1691290;84;20309;-92
2021/01/15 10:42:30;;;;;;;;;;;;;;;-2.14;70.14;98344.31;1665689;84;25294;-91
2021/01/15 10:45:16;;;;;;;;;;;;;;;-2.11;69.95;98340.39;1678579;84;22332;-92
2021/01/15 10:48:03;;;;;;;;;;;;;;;-2.08;69.78;98345.91;1697192;84;26158;-91
2021/01/15 10:50:49;;;;;;;;;;;;;;;-2.09;69.62;98343.77;1670803;84;24802;-91
2021/01/15 10:53:35;;;;;;;;;;;;;;;-1.99;69.48;98332.44;1716491;83;20267;-91
2021/01/15 10:56:22;;;;;;;;;;;;;;;-1.89;69.38;98328.80;1688125;84;24889;-91
2021/01/15 10:59:07;;;;;;;;;;;;;;;-1.84;69.29;98329.97;1690175;84;22387;-91
2021/01/15 11:01:53;;;;;;;;;;;;;;;-1.78;69.16;98334.97;1690470;84;26144;-91
2021/01/15 11:04:42;;;;;;;;;;;;;;;-1.70;69.06;98331.81;1693413;84;20195;-91
2021/01/15 11:07:28;;;;;;;;;;;;;;;-1.56;68.97;98340.02;1692643;84;20283;-92
2021/01/15 11:10:14;;;;;;;;;;;;;;;-1.45;68.92;98333.36;1691083;84;25015;-92
2021/01/15 11:13:00;;;;;;;;;;;;;;;-1.43;68.84;98332.89;1692269;84;22368;-92
2021/01/15 11:15:46;;;;;;;;;;;;;;;-1.51;68.76;98326.64;1692010;84;26359;-92
2021/01/15 11:18:32;;;;;;;;;;;;;;;-1.66;68.58;98318.03;1686490;84;24621;-92
2021/01/15 11:21:19;;;;;;;;;;;;;;;-1.83;68.37;98303.45;1688353;84;20287;-92
2021/01/15 11:24:05;;;;;;;;;;;;;;;-1.92;68.17;98319.05;1687893;84;24908;-91
2021/01/15 11:26:51;;;;;;;;;;;;;;;-1.93;67.99;98325.05;1690801;84;22155;-92
2021/01/15 11:29:38;;;;;;;;;;;;;;;-1.84;67.82;98327.41;1692314;84;27085;-92
2021/01/15 11:32:24;;;;;;;;;;;;;;;-1.67;67.71;98327.03;1684749;84;25432;-91
2021/01/15 11:35:10;;;;;;;;;;;;;;;-1.47;67.62;98326.97;1687421;84;20274;-91
2021/01/15 11:37:58;;;;;;;;;;;;;;;-1.36;67.57;98324.98;1687409;84;24981;-91
2021/01/15 11:40:45;;;;;;;;;;;;;;;-1.20;67.53;98314.38;1691965;84;22139;-91
2021/01/15 11:43:31;;;;;;;;;;;;;;;-1.18;67.49;98308.73;1693626;84;25587;-91
2021/01/15 11:46:17;;;;;;;;;;;;;;;-1.20;67.40;98301.06;1689762;84;24651;-91
2021/01/15 11:49:04;;;;;;;;;;;;;;;-1.28;67.31;98297.86;1692400;83;20394;-91
2021/01/15 11:51:50;;;;;;;;;;;;;;;-1.21;67.18;98304.98;1682103;84;24975;-90
2021/01/15 11:54:38;;;;;;;;;;;;;;;-1.10;67.12;98309.41;1706259;82;22234;-91
2021/01/15 11:57:24;;;;;;;;;;;;;;;-1.02;67.02;98308.75;1705148;84;27174;-91
2021/01/15 12:00:11;;;;;;;;;;;;;;;-1.00;66.96;98301.86;1710304;84;24727;-92
2021/01/15 12:02:57;;;;;;;;;;;;;;;-1.17;66.86;98295.02;1702154;84;20372;-90
2021/01/15 12:05:43;;;;;;;;;;;;;;;-1.34;66.73;98292.44;1688447;84;25037;-91
2021/01/15 12:08:29;;;;;;;;;;;;;;;-1.32;66.56;98286.84;1697933;84;22164;-91
2021/01/15 12:11:15;;;;;;;;;;;;;;;-1.19;66.44;98290.36;1708303;84;26184;-91
2021/01/15 12:14:01;;;;;;;;;;;;;;;-1.09;66.38;98280.28;1711750;84;24731;-91
2021/01/15 12:16:47;;;;;;;;;;;;;;;-1.16;66.30;98282.16;1711891;84;20339;-92
2021/01/15 12:19:34;;;;;;;;;;;;;;;-1.35;66.16;98275.34;1712658;81;24918;-92
2021/01/15 12:22:21;;;;;;;;;;;;;;;-1.41;65.98;98273.37;1714401;82;22242;-92
2021/01/15 12:25:07;;;;;;;;;;;;;;;-1.50;65.81;98280.02;1689110;85;26255;-93
2021/01/15 12:27:53;;;;;;;;;;;;;;;-1.57;65.63;98283.17;1689046;85;24624;-91
2021/01/15 12:30:39;;;;;;;;;;;;;;;-1.54;65.47;98288.24;1689124;85;20420;-93
2021/01/15 12:33:26;;;;;;;;;;;;;;;-1.45;65.33;98288.01;1689287;85;24983;-94
2021/01/15 12:36:12;;;;;;;;;;;;;;;-1.31;65.26;98276.14;1686415;85;23107;-91
2021/01/15 12:38:58;;;;;;;;;;;;;;;-1.17;65.21;98271.92;1689211;85;27004;-90
2021/01/15 12:41:45;;;;;;;;;;;;;;;-1.10;65.16;98266.59;1689630;85;24623;-91
2021/01/15 12:44:31;;;;;;;;;;;;;;;-0.98;65.09;98269.26;1687918;85;20632;-90
2021/01/15 12:47:17;;;;;;;;;;;;;;;-0.82;65.06;98274.42;1686151;85;24911;-91
2021/01/15 12:50:03;;;;;;;;;;;;;;;-0.70;65.02;98281.77;1678034;85;22219;-91
2021/01/15 12:52:49;;;;;;;;;;;;;;;-0.61;64.97;98274.27;1688278;85;27116;-91
2021/01/15 12:55:35;;;;;;;;;;;;;;;-0.54;64.95;98270.62;1687092;85;25489;-91
2021/01/15 12:58:24;;;;;;;;;;;;;;;-0.49;64.87;98270.04;1686545;85;20226;-91
2021/01/15 13:01:10;;;;;;;;;;;;;;;-0.45;64.79;98275.52;1680032;85;24979;-91
2021/01/15 13:03:56;;;;;;;;;;;;;;;-0.43;64.70;98269.88;1689514;85;22170;-92
2021/01/15 13:06:42;;;;;;;;;;;;;;;-0.43;64.63;98267.30;1685938;85;26308;-92
2021/01/15 13:09:28;;;;;;;;;;;;;;;-0.52;64.52;98265.84;1689269;85;24833;-92
2021/01/15 13:12:15;;;;;;;;;;;;;;;-0.52;64.43;98267.58;1683924;85;20192;-91
2021/01/15 13:15:02;;;;;;;;;;;;;;;-0.55;64.33;98276.23;1708028;83;25087;-92
2021/01/15 13:17:48;;;;;;;;;;;;;;;-0.50;64.26;98278.66;1689345;85;22044;-92
2021/01/15 13:20:34;;;;;;;;;;;;;;;-0.43;64.19;98276.30;1685986;84;26162;-91
2021/01/15 13:23:20;;;;;;;;;;;;;;;-0.41;64.12;98279.67;1689595;84;25607;-91
2021/01/15 13:26:08;;;;;;;;;;;;;;;-0.37;64.04;98284.28;1689722;84;20216;-92
2021/01/15 13:28:56;;;;;;;;;;;;;;;-0.37;63.91;98280.42;1685352;84;24904;-93
2021/01/15 13:31:42;;;;;;;;;;;;;;;-0.38;63.82;98283.91;1688719;84;22128;-92
2021/01/15 13:34:29;;;;;;;;;;;;;;;-0.38;63.71;98289.86;1710929;84;26192;-92
2021/01/15 13:37:15;;;;;;;;;;;;;;;-0.42;63.59;98288.27;1695873;84;24605;-91
2021/01/15 13:40:01;;;;;;;;;;;;;;;-0.49;63.49;98292.73;1703918;83;20269;-92
2021/01/15 13:42:48;;;;;;;;;;;;;;;-0.57;63.39;98293.84;1696896;84;24724;-92
2021/01/15 13:45:34;;;;;;;;;;;;;;;-0.59;63.28;98293.87;1684416;84;22163;-92
2021/01/15 13:48:20;;;;;;;;;;;;;;;-0.58;63.16;98285.73;1682967;84;26111;-93
2021/01/15 13:51:14;;;;;;;;;;;;;;;-0.50;63.07;98292.36;1684875;83;24584;-91
2021/01/15 13:54:00;;;;;;;;;;;;;;;-0.47;63.00;98299.13;1687338;84;20307;-94
2021/01/15 13:56:48;;;;;;;;;;;;;;;-0.53;62.91;98307.00;1680402;85;25111;-91
2021/01/15 13:59:37;;;;;;;;;;;;;;;-0.57;62.81;98309.27;1671322;85;22221;-94
2021/01/15 14:02:24;;;;;;;;;;;;;;;-0.62;62.74;98316.26;1676009;83;26095;-92
2021/01/15 14:05:10;;;;;;;;;;;;;;;-0.76;62.64;98321.75;1709075;84;24623;-92
2021/01/15 14:07:57;;;;;;;;;;;;;;;-0.77;62.54;98319.25;1701158;84;20267;-94
2021/01/15 14:10:44;;;;;;;;;;;;;;;-0.67;62.47;98314.26;1705646;84;24824;-92
2021/01/15 14:13:30;;;;;;;;;;;;;;;-0.71;62.41;98319.90;1700622;83;22097;-92
2021/01/15 14:16:16;;;;;;;;;;;;;;;-1.04;62.30;98322.94;1703871;83;26136;-93
2021/01/15 14:19:02;;;;;;;;;;;;;;;-1.60;62.10;98324.73;1686572;84;24846;-91
2021/01/15 14:21:49;;;;;;;;;;;;;;;-1.91;61.82;98328.44;1672848;84;20570;-92
2021/01/15 14:24:35;;;;;;;;;;;;;;;-1.93;61.60;98327.62;1667142;86;25106;-93
2021/01/15 14:27:21;;;;;;;;;;;;;;;-1.85;61.45;98323.16;1716559;83;22103;-92
2021/01/15 14:30:07;;;;;;;;;;;;;;;-1.80;61.36;98323.45;1700521;84;26125;-92
2021/01/15 14:32:53;;;;;;;;;;;;;;;-1.55;61.33;98322.91;1701151;84;24728;-94